createdAt,value
2022-11-18T00:02:01.557Z,9.81
2022-11-18T00:04:31.343Z,9.69
2022-11-18T00:06:59.186Z,9.63
2022-11-18T00:09:29.279Z,9.74
2022-11-18T00:12:16.048Z,9.76
2022-11-18T00:14:46.325Z,9.85
2022-11-18T00:20:24.537Z,9.90
2022-11-18T00:22:56.914Z,9.90
2022-11-18T00:25:24.741Z,9.92
2022-11-18T00:27:55.269Z,9.93
2022-11-18T00:30:30.742Z,9.90
2022-11-18T00:33:01.685Z,9.89
2022-11-18T00:35:31.896Z,9.89
2022-11-18T00:38:00.896Z,9.84
2022-11-18T00:40:57.230Z,9.70
2022-11-18T00:43:34.530Z,9.79
2022-11-18T00:46:13.442Z,9.89
2022-11-18T00:48:50.105Z,9.88
2022-11-18T00:51:27.639Z,9.90
2022-11-18T00:53:56.535Z,9.97
2022-11-18T00:56:28.774Z,9.94
2022-11-18T00:58:58.195Z,9.94
2022-11-18T01:01:30.098Z,10.03
2022-11-18T01:04:00.432Z,10.08
2022-11-18T01:06:30.473Z,10.14
2022-11-18T01:08:58.795Z,10.16
2022-11-18T01:11:45.646Z,10.17
2022-11-18T01:14:22.703Z,10.24
2022-11-18T01:17:02.218Z,10.15
2022-11-18T01:19:35.995Z,10.21
2022-11-18T01:22:09.425Z,10.19
2022-11-18T01:24:39.083Z,10.07
2022-11-18T01:27:10.277Z,10.10
2022-11-18T01:29:43.756Z,10.15
2022-11-18T01:32:26.353Z,10.15
2022-11-18T01:35:04.844Z,10.06
2022-11-18T01:38:16.901Z,10.05
2022-11-18T01:40:45.239Z,10.13
2022-11-18T01:43:22.100Z,10.14
2022-11-18T01:46:11.176Z,10.19
2022-11-18T01:48:40.923Z,10.21
2022-11-18T01:51:17.557Z,10.25
2022-11-18T01:53:52.665Z,10.34
2022-11-18T01:56:50.099Z,10.33
2022-11-18T01:59:35.170Z,10.33
2022-11-18T02:02:22.846Z,10.34
2022-11-18T02:04:59.217Z,10.28
2022-11-18T02:07:48.559Z,10.24
2022-11-18T02:10:28.070Z,10.21
2022-11-18T02:13:02.427Z,10.25
2022-11-18T02:15:49.122Z,10.22
2022-11-18T02:18:36.283Z,10.25
2022-11-18T02:21:23.324Z,10.26
2022-11-18T02:24:22.784Z,10.15
2022-11-18T02:27:27.403Z,10.23
2022-11-18T02:30:04.175Z,10.17
2022-11-18T02:32:35.501Z,10.23
2022-11-18T02:35:12.551Z,10.23
2022-11-18T02:37:49.664Z,10.23
2022-11-18T02:40:32.892Z,10.14
2022-11-18T02:43:08.600Z,10.22
2022-11-18T02:45:42.486Z,10.26
2022-11-18T02:48:19.419Z,10.18
2022-11-18T02:50:56.784Z,10.21
2022-11-18T02:53:30.163Z,10.31
2022-11-18T02:56:00.203Z,10.29
2022-11-18T02:58:28.337Z,10.32
2022-11-18T03:00:59.898Z,10.30
2022-11-18T03:03:36.121Z,10.14
2022-11-18T03:06:13.260Z,10.09
2022-11-18T03:09:00.891Z,10.02
2022-11-18T03:11:36.799Z,10.06
2022-11-18T03:14:16.943Z,10.17
2022-11-18T03:20:00.262Z,10.12
2022-11-18T03:22:34.553Z,10.13
2022-11-18T03:25:08.787Z,10.22
2022-11-18T03:27:45.674Z,10.30
2022-11-18T03:30:22.017Z,10.26
2022-11-18T03:33:15.650Z,10.32
2022-11-18T03:35:47.705Z,10.21
2022-11-18T03:38:21.481Z,10.18
2022-11-18T03:40:55.085Z,10.15
2022-11-18T03:43:49.291Z,10.15
2022-11-18T03:46:26.754Z,10.23
2022-11-18T03:49:03.655Z,10.22
2022-11-18T03:51:37.669Z,10.33
2022-11-18T03:54:16.382Z,10.17
2022-11-18T03:56:58.226Z,10.31
2022-11-18T03:59:34.826Z,10.17
2022-11-18T04:02:08.386Z,10.17
2022-11-18T04:04:38.037Z,9.99
2022-11-18T04:07:11.770Z,10.02
2022-11-18T04:09:44.561Z,9.99
2022-11-18T04:12:16.077Z,10.00
2022-11-18T04:14:54.729Z,9.96
2022-11-18T04:17:39.450Z,9.99
2022-11-18T04:20:16.537Z,9.94
2022-11-18T04:22:45.274Z,9.94
2022-11-18T04:25:16.846Z,10.00
2022-11-18T04:27:45.675Z,10.11
2022-11-18T04:30:15.837Z,10.01
2022-11-18T04:32:45.025Z,10.04
2022-11-18T04:35:17.375Z,9.91
2022-11-18T04:37:45.988Z,9.92
2022-11-18T04:40:13.947Z,9.98
2022-11-18T04:42:41.837Z,9.95
2022-11-18T04:45:11.723Z,9.83
2022-11-18T04:47:42.283Z,9.79
2022-11-18T04:50:10.804Z,9.82
2022-11-18T04:52:42.793Z,9.81
2022-11-18T04:55:10.350Z,9.74
2022-11-18T04:57:42.979Z,9.75
2022-11-18T05:00:11.947Z,9.74
2022-11-18T05:02:42.384Z,9.84
2022-11-18T05:05:12.055Z,9.80
2022-11-18T05:07:42.818Z,9.74
2022-11-18T05:10:14.240Z,9.76
2022-11-18T05:12:50.507Z,9.72
2022-11-18T05:15:21.581Z,9.75
2022-11-18T05:17:51.976Z,9.80
2022-11-18T05:20:37.414Z,9.80
2022-11-18T05:23:12.214Z,9.82
2022-11-18T05:25:40.157Z,9.79
2022-11-18T05:28:09.320Z,9.71
2022-11-18T05:30:37.244Z,9.80
2022-11-18T05:33:05.398Z,9.85
2022-11-18T05:35:33.692Z,9.83
2022-11-18T05:38:05.843Z,9.77
2022-11-18T05:40:34.853Z,9.82
2022-11-18T05:43:13.925Z,9.83
2022-11-18T05:45:46.340Z,9.82
2022-11-18T05:48:15.725Z,9.94
2022-11-18T05:50:46.662Z,9.91
2022-11-18T05:53:19.552Z,9.90
2022-11-18T05:55:56.500Z,9.91
2022-11-18T05:58:26.703Z,10.06
2022-11-18T06:01:00.323Z,9.96
2022-11-18T06:03:32.693Z,9.89
2022-11-18T06:06:05.478Z,9.79
2022-11-18T06:08:42.224Z,9.82
2022-11-18T06:11:16.400Z,9.77
2022-11-18T06:13:50.680Z,9.70
2022-11-18T06:16:24.995Z,9.73
2022-11-18T06:18:54.427Z,9.64
2022-11-18T06:21:27.044Z,9.52
2022-11-18T06:23:58.121Z,9.49
2022-11-18T06:26:32.414Z,9.44
2022-11-18T06:29:08.284Z,9.50
2022-11-18T06:31:37.418Z,9.45
2022-11-18T06:34:05.496Z,9.46
2022-11-18T06:36:36.818Z,9.60
2022-11-18T06:39:05.840Z,9.54
2022-11-18T06:41:37.857Z,9.60
2022-11-18T06:44:12.995Z,9.66
2022-11-18T06:47:03.025Z,9.77
2022-11-18T06:49:35.818Z,9.72
2022-11-18T06:52:13.802Z,9.65
2022-11-18T06:54:45.240Z,9.75
2022-11-18T06:57:22.967Z,9.81
2022-11-18T06:59:52.035Z,9.72
2022-11-18T07:02:20.180Z,9.85
2022-11-18T07:04:47.779Z,9.92
2022-11-18T07:07:15.879Z,9.99
2022-11-18T07:09:44.592Z,9.94
2022-11-18T07:12:12.256Z,9.90
2022-11-18T07:14:41.185Z,9.88
2022-11-18T07:17:08.769Z,9.81
2022-11-18T07:19:36.771Z,9.89
2022-11-18T07:22:04.452Z,9.91
2022-11-18T07:24:32.563Z,9.91
2022-11-18T07:27:00.991Z,9.88
2022-11-18T07:29:37.694Z,9.97
2022-11-18T07:32:21.823Z,9.94
2022-11-18T07:34:50.389Z,9.89
2022-11-18T07:37:18.401Z,9.96
2022-11-18T07:39:50.023Z,10.05
2022-11-18T07:42:18.104Z,10.05
2022-11-18T07:44:46.486Z,9.95
2022-11-18T07:47:17.926Z,10.07
2022-11-18T07:50:00.637Z,10.08
2022-11-18T07:52:28.409Z,10.07
2022-11-18T07:54:57.947Z,10.21
2022-11-18T07:57:25.626Z,10.21
2022-11-18T07:59:53.247Z,10.21
2022-11-18T08:02:29.010Z,10.14
2022-11-18T08:04:58.365Z,10.07
2022-11-18T08:07:28.690Z,10.06
2022-11-18T08:09:57.257Z,10.07
2022-11-18T08:12:25.626Z,10.20
2022-11-18T08:14:53.651Z,10.25
2022-11-18T08:17:26.629Z,10.22
2022-11-18T08:19:54.527Z,10.28
2022-11-18T08:22:22.549Z,10.25
2022-11-18T08:24:50.612Z,10.36
2022-11-18T08:27:23.711Z,10.35
2022-11-18T08:29:52.295Z,10.47
2022-11-18T08:32:20.028Z,10.62
2022-11-18T08:34:51.309Z,10.54
2022-11-18T08:37:19.395Z,10.49
2022-11-18T08:39:47.524Z,10.60
2022-11-18T08:42:18.325Z,10.66
2022-11-18T08:44:48.718Z,10.76
2022-11-18T08:47:19.123Z,10.79
2022-11-18T08:49:47.409Z,10.79
2022-11-18T08:52:16.732Z,10.93
2022-11-18T08:54:44.460Z,10.75
2022-11-18T08:57:12.117Z,10.72
2022-11-18T08:59:39.746Z,10.72
2022-11-18T09:02:09.214Z,10.56
2022-11-18T09:04:37.194Z,10.59
2022-11-18T09:07:05.420Z,10.71
2022-11-18T09:09:37.129Z,10.67
2022-11-18T09:12:07.613Z,10.63
2022-11-18T09:17:26.510Z,10.86
2022-11-18T09:19:55.070Z,10.89
2022-11-18T09:22:55.366Z,10.83
2022-11-18T09:25:25.801Z,10.91
2022-11-18T09:27:55.458Z,10.70
2022-11-18T09:30:23.147Z,10.69
2022-11-18T09:32:51.263Z,10.61
2022-11-18T09:35:19.005Z,10.39
2022-11-18T09:37:46.907Z,10.56
2022-11-18T09:40:18.656Z,10.53
2022-11-18T09:43:01.817Z,10.58
2022-11-18T09:45:37.426Z,10.51
2022-11-18T09:48:16.699Z,10.64
2022-11-18T09:50:50.049Z,10.85
2022-11-18T09:53:21.155Z,10.98
2022-11-18T09:55:50.509Z,11.05
2022-11-18T09:58:23.785Z,10.95
2022-11-18T10:00:51.391Z,10.82
2022-11-18T10:03:28.175Z,10.83
2022-11-18T10:05:59.547Z,10.95
2022-11-18T10:08:32.703Z,11.08
2022-11-18T10:11:07.843Z,10.83
2022-11-18T10:13:49.900Z,10.97
2022-11-18T10:16:30.290Z,10.99
2022-11-18T10:19:06.441Z,10.87
2022-11-18T10:21:47.427Z,10.90
2022-11-18T10:24:20.885Z,10.96
2022-11-18T10:26:49.216Z,10.91
2022-11-18T10:29:18.328Z,11.10
2022-11-18T10:32:01.134Z,11.20
2022-11-18T10:34:33.889Z,11.28
2022-11-18T10:37:05.415Z,11.55
2022-11-18T10:39:35.383Z,11.33
2022-11-18T10:42:06.491Z,11.18
2022-11-18T10:44:38.907Z,11.18
2022-11-18T10:47:41.764Z,11.23
2022-11-18T10:50:30.695Z,11.08
2022-11-18T10:52:58.407Z,11.11
2022-11-18T10:55:29.717Z,11.03
2022-11-18T10:58:01.754Z,11.21
2022-11-18T11:00:47.695Z,11.16
2022-11-18T11:03:37.089Z,11.11
2022-11-18T11:06:31.216Z,11.31
2022-11-18T11:09:02.410Z,11.25
2022-11-18T11:11:33.389Z,11.40
2022-11-18T11:14:26.897Z,11.32
2022-11-18T11:17:13.592Z,11.47
2022-11-18T11:19:49.300Z,11.57
2022-11-18T11:22:17.924Z,11.53
2022-11-18T11:24:47.099Z,11.57
2022-11-18T11:30:18.169Z,12.01
2022-11-18T11:33:33.395Z,11.80
2022-11-18T11:36:19.996Z,11.82
2022-11-18T11:39:04.239Z,11.75
2022-11-18T11:41:40.557Z,11.56
2022-11-18T11:44:26.832Z,11.87
2022-11-18T11:47:24.333Z,11.72
2022-11-18T11:50:02.236Z,11.75
2022-11-18T11:52:40.696Z,11.83
2022-11-18T11:55:18.029Z,11.66
2022-11-18T11:58:00.798Z,12.11
2022-11-18T12:00:28.911Z,12.04
2022-11-18T12:03:14.992Z,12.27
2022-11-18T12:05:44.348Z,12.46
2022-11-18T12:08:17.385Z,12.26
2022-11-18T12:10:49.345Z,12.38
2022-11-18T12:13:27.994Z,12.42
2022-11-18T12:16:10.316Z,12.26
2022-11-18T12:18:46.874Z,12.50
2022-11-18T12:21:48.048Z,12.51
2022-11-18T12:24:46.305Z,12.57
2022-11-18T12:27:15.925Z,13.00
2022-11-18T12:29:56.555Z,13.37
2022-11-18T12:32:31.826Z,13.47
2022-11-18T12:35:03.685Z,13.72
2022-11-18T12:37:46.223Z,13.25
2022-11-18T12:40:38.240Z,13.40
2022-11-18T12:43:24.584Z,13.33
2022-11-18T12:45:57.091Z,13.27
2022-11-18T12:48:35.151Z,13.38
2022-11-18T12:51:32.790Z,13.16
2022-11-18T12:54:01.515Z,13.47
2022-11-18T12:56:35.834Z,13.56
2022-11-18T12:59:04.441Z,13.67
2022-11-18T13:01:35.149Z,13.41
2022-11-18T13:04:08.845Z,13.17
2022-11-18T13:06:39.684Z,12.90
2022-11-18T13:09:16.452Z,12.51
2022-11-18T13:11:52.372Z,12.27
2022-11-18T13:14:42.049Z,11.91
2022-11-18T13:17:50.321Z,11.53
2022-11-18T13:20:29.930Z,11.52
2022-11-18T13:23:17.589Z,11.52
2022-11-18T13:25:46.842Z,11.55
2022-11-18T13:28:29.798Z,11.62
2022-11-18T13:31:06.350Z,11.63
2022-11-18T13:33:37.199Z,11.76
2022-11-18T13:36:14.139Z,11.83
2022-11-18T13:38:56.141Z,11.77
2022-11-18T13:41:32.929Z,11.69
2022-11-18T13:44:25.105Z,11.55
2022-11-18T13:46:57.099Z,11.45
2022-11-18T13:49:34.742Z,11.49
2022-11-18T13:52:02.962Z,11.49
2022-11-18T13:54:35.521Z,11.49
2022-11-18T13:57:05.467Z,11.72
2022-11-18T13:59:36.761Z,11.83
2022-11-18T14:02:04.457Z,11.87
2022-11-18T14:04:36.257Z,11.83
2022-11-18T14:07:26.955Z,11.96
2022-11-18T14:09:57.318Z,11.78
2022-11-18T14:12:28.951Z,11.87
2022-11-18T14:15:34.102Z,11.68
2022-11-18T14:18:03.647Z,11.64
2022-11-18T14:20:34.087Z,11.54
2022-11-18T14:23:05.654Z,11.43
2022-11-18T14:28:23.483Z,11.34
2022-11-18T14:31:06.652Z,11.27
2022-11-18T14:33:36.362Z,11.37
2022-11-18T14:36:12.194Z,11.32
2022-11-18T14:39:11.401Z,11.26
2022-11-18T14:41:48.093Z,11.23
2022-11-18T14:44:17.625Z,11.27
2022-11-18T14:46:49.864Z,11.20
2022-11-18T14:49:19.961Z,11.13
2022-11-18T14:51:48.098Z,11.08
2022-11-18T14:54:23.889Z,11.01
2022-11-18T14:56:58.682Z,10.98
2022-11-18T14:59:26.429Z,10.86
2022-11-18T15:01:56.538Z,10.81
2022-11-18T15:04:25.379Z,10.70
2022-11-18T15:06:53.303Z,10.63
2022-11-18T15:09:21.248Z,10.63
2022-11-18T15:11:50.835Z,10.61
2022-11-18T15:14:19.676Z,10.66
2022-11-18T15:16:47.512Z,10.69
2022-11-18T15:19:18.344Z,10.73
2022-11-18T15:21:46.315Z,10.77
2022-11-18T15:24:14.846Z,10.68
2022-11-18T15:26:46.967Z,10.67
2022-11-18T15:29:18.788Z,10.58
2022-11-18T15:31:47.952Z,10.49
2022-11-18T15:34:20.058Z,10.44
2022-11-18T15:36:48.230Z,10.37
2022-11-18T15:39:16.089Z,10.34
2022-11-18T15:41:44.242Z,10.28
2022-11-18T15:44:12.992Z,10.20
2022-11-18T15:46:40.948Z,10.17
2022-11-18T15:49:13.734Z,10.10
2022-11-18T15:51:43.058Z,10.06
2022-11-18T15:54:10.677Z,10.01
2022-11-18T15:56:40.184Z,9.95
2022-11-18T15:59:10.877Z,9.89
2022-11-18T16:01:40.241Z,9.78
2022-11-18T16:04:10.230Z,9.76
2022-11-18T16:06:39.541Z,9.70
2022-11-18T16:09:08.660Z,9.67
2022-11-18T16:11:54.021Z,9.61
2022-11-18T16:14:23.376Z,9.50
2022-11-18T16:16:54.003Z,9.51
2022-11-18T16:19:24.477Z,9.46
2022-11-18T16:21:54.591Z,9.48
2022-11-18T16:24:26.066Z,9.47
2022-11-18T16:26:54.904Z,9.42
2022-11-18T16:29:25.613Z,9.32
2022-11-18T16:31:54.983Z,9.31
2022-11-18T16:34:24.320Z,9.28
2022-11-18T16:36:53.956Z,9.25
2022-11-18T16:39:25.610Z,9.24
2022-11-18T16:41:54.677Z,9.19
2022-11-18T16:44:23.204Z,9.15
2022-11-18T16:46:52.633Z,9.12
2022-11-18T16:49:22.219Z,9.15
2022-11-18T16:51:52.837Z,9.09
2022-11-18T16:54:24.120Z,9.04
2022-11-18T16:56:53.088Z,9.04
2022-11-18T16:59:25.288Z,9.05
2022-11-18T17:01:56.027Z,9.03
2022-11-18T17:04:25.452Z,9.05
2022-11-18T17:06:54.608Z,9.04
2022-11-18T17:09:36.539Z,9.13
2022-11-18T17:12:05.529Z,9.10
2022-11-18T17:14:34.033Z,9.12
2022-11-18T17:17:04.222Z,9.09
2022-11-18T17:19:33.081Z,9.14
2022-11-18T17:22:05.152Z,9.17
2022-11-18T17:24:34.499Z,9.19
2022-11-18T17:27:05.740Z,9.23
2022-11-18T17:29:34.777Z,9.34
2022-11-18T17:32:02.714Z,9.34
2022-11-18T17:34:30.824Z,9.38
2022-11-18T17:37:04.781Z,9.44
2022-11-18T17:39:36.428Z,9.45
2022-11-18T17:42:26.722Z,9.41
2022-11-18T17:45:02.798Z,9.39
2022-11-18T17:47:38.335Z,9.34
2022-11-18T17:50:08.231Z,9.33
2022-11-18T17:56:10.021Z,9.28
2022-11-18T17:58:39.244Z,9.32
2022-11-18T18:01:12.021Z,9.28
2022-11-18T18:03:41.198Z,9.23
2022-11-18T18:06:13.768Z,9.25
2022-11-18T18:08:46.358Z,9.33
2022-11-18T18:11:30.497Z,9.26
2022-11-18T18:14:13.040Z,9.11
2022-11-18T18:16:44.946Z,9.16
2022-11-18T18:19:18.355Z,8.97
2022-11-18T18:21:52.279Z,8.92
2022-11-18T18:24:21.562Z,9.06
2022-11-18T18:26:57.460Z,9.00
2022-11-18T18:29:32.120Z,8.89
2022-11-18T18:32:01.161Z,8.89
2022-11-18T18:34:31.586Z,9.00
2022-11-18T18:36:59.928Z,8.88
2022-11-18T18:39:30.153Z,8.82
2022-11-18T18:42:00.433Z,8.76
2022-11-18T18:44:50.181Z,8.73
2022-11-18T18:47:17.887Z,8.76
2022-11-18T18:49:50.497Z,8.71
2022-11-18T18:52:29.091Z,8.68
2022-11-18T18:54:57.964Z,8.71
2022-11-18T18:57:27.291Z,8.67
2022-11-18T18:59:57.971Z,8.70
2022-11-18T19:02:28.676Z,8.69
2022-11-18T19:05:06.240Z,8.68
2022-11-18T19:07:37.885Z,8.68
2022-11-18T19:10:09.513Z,8.68
2022-11-18T19:12:47.336Z,8.61
2022-11-18T19:15:16.963Z,8.69
2022-11-18T19:18:07.043Z,8.64
2022-11-18T19:20:37.132Z,8.60
2022-11-18T19:23:10.659Z,8.57
2022-11-18T19:25:38.657Z,8.64
2022-11-18T19:28:11.897Z,8.52
2022-11-18T19:30:40.160Z,8.55
2022-11-18T19:33:07.772Z,8.57
2022-11-18T19:35:35.835Z,8.67
2022-11-18T19:38:04.066Z,8.67
2022-11-18T19:40:32.160Z,8.83
2022-11-18T19:45:54.749Z,8.95
2022-11-18T19:48:27.855Z,8.85
2022-11-18T19:51:07.352Z,8.89
2022-11-18T19:53:36.886Z,8.95
2022-11-18T19:56:17.914Z,8.95
2022-11-18T19:58:46.530Z,9.04
2022-11-18T20:01:18.482Z,8.90
2022-11-18T20:03:48.620Z,8.94
2022-11-18T20:06:39.209Z,8.88
2022-11-18T20:09:08.658Z,8.91
2022-11-18T20:11:39.194Z,8.81
2022-11-18T20:14:37.527Z,8.76
2022-11-18T20:20:27.327Z,8.67
2022-11-18T20:23:01.687Z,8.78
2022-11-18T20:25:34.059Z,8.73
2022-11-18T20:28:01.780Z,8.71
2022-11-18T20:30:34.258Z,8.76
2022-11-18T20:33:03.611Z,8.66
2022-11-18T20:35:31.869Z,8.54
2022-11-18T20:38:05.575Z,8.51
2022-11-18T20:40:39.933Z,8.55
2022-11-18T20:43:21.398Z,8.48
2022-11-18T20:46:03.684Z,8.47
2022-11-18T20:48:34.696Z,8.39
2022-11-18T20:51:04.395Z,8.44
2022-11-18T20:53:35.026Z,8.45
2022-11-18T20:56:03.001Z,8.46
2022-11-18T20:58:34.563Z,8.34
2022-11-18T21:01:12.650Z,8.36
2022-11-18T21:03:43.812Z,8.31
2022-11-18T21:06:19.615Z,8.29
2022-11-18T21:08:48.647Z,8.32
2022-11-18T21:11:24.632Z,8.29
2022-11-18T21:14:10.284Z,8.24
2022-11-18T21:16:41.087Z,8.33
2022-11-18T21:19:14.135Z,8.40
2022-11-18T21:21:50.118Z,8.34
2022-11-18T21:24:20.148Z,8.41
2022-11-18T21:26:52.026Z,8.35
2022-11-18T21:29:22.405Z,8.39
2022-11-18T21:31:52.595Z,8.38
2022-11-18T21:34:25.005Z,8.36
2022-11-18T21:36:55.202Z,8.38
2022-11-18T21:39:23.933Z,8.31
2022-11-18T21:41:55.757Z,8.38
2022-11-18T21:44:45.626Z,8.34
2022-11-18T21:47:14.723Z,8.47
2022-11-18T21:49:45.817Z,8.37
2022-11-18T21:52:17.215Z,8.42
2022-11-18T21:54:47.826Z,8.50
2022-11-18T21:57:17.361Z,8.63
2022-11-18T21:59:47.024Z,8.57
2022-11-18T22:02:21.787Z,8.46
2022-11-18T22:04:54.243Z,8.44
2022-11-18T22:07:24.774Z,8.36
2022-11-18T22:09:55.209Z,8.49
2022-11-18T22:12:23.106Z,8.44
2022-11-18T22:14:50.710Z,8.38
2022-11-18T22:17:18.681Z,8.33
2022-11-18T22:19:47.104Z,8.28
2022-11-18T22:22:18.575Z,8.30
2022-11-18T22:24:54.097Z,8.38
2022-11-18T22:27:22.434Z,8.38
2022-11-18T22:29:51.121Z,8.39
2022-11-18T22:32:23.832Z,8.48
2022-11-18T22:34:53.786Z,8.42
2022-11-18T22:37:27.980Z,8.47
2022-11-18T22:39:59.323Z,8.62
2022-11-18T22:42:45.021Z,8.44
2022-11-18T22:45:13.427Z,8.41
2022-11-18T22:47:41.225Z,8.26
2022-11-18T22:50:13.010Z,7.80
2022-11-18T22:52:50.498Z,7.81
2022-11-18T22:55:26.891Z,7.62
2022-11-18T22:57:55.787Z,7.50
2022-11-18T23:00:24.400Z,7.45
2022-11-18T23:02:55.077Z,7.38
2022-11-18T23:05:22.976Z,7.16
2022-11-18T23:07:52.431Z,7.19
2022-11-18T23:10:25.016Z,6.98
2022-11-18T23:13:10.414Z,7.01
2022-11-18T23:15:56.989Z,6.86
2022-11-18T23:18:24.956Z,6.72
2022-11-18T23:20:53.944Z,6.63
2022-11-18T23:23:28.367Z,6.51
2022-11-18T23:25:56.972Z,6.33
2022-11-18T23:28:27.781Z,6.31
2022-11-18T23:31:05.273Z,6.41
2022-11-18T23:33:43.259Z,6.40
2022-11-18T23:36:18.187Z,6.49
2022-11-18T23:38:51.788Z,6.50
2022-11-18T23:41:20.497Z,6.53
2022-11-18T23:46:53.848Z,6.21
2022-11-18T23:49:30.747Z,6.25
2022-11-18T23:52:00.094Z,6.15
2022-11-18T23:54:31.333Z,6.21
2022-11-18T23:56:59.285Z,6.11
2022-11-18T23:59:27.403Z,6.16
